createdAt,value
2018-09-02T00:20:08.474Z,98.30
2018-09-02T00:48:33.808Z,98.50
2018-09-02T01:20:03.762Z,96.30
2018-09-02T01:48:32.420Z,95.80
2018-09-02T02:28:27.452Z,98.10
2018-09-02T02:51:08.456Z,97.00
2018-09-02T02:53:38.939Z,97.10
2018-09-02T03:19:12.347Z,98.30
2018-09-02T03:50:31.528Z,99.10
2018-09-02T04:18:58.310Z,99.40
2018-09-02T04:50:18.765Z,99.70
2018-09-02T05:21:37.018Z,99.00
2018-09-02T05:50:01.437Z,97.80
2018-09-02T06:21:20.686Z,95.00
2018-09-02T06:49:46.387Z,93.10
2018-09-02T07:21:07.097Z,88.80
2018-09-02T07:43:55.964Z,85.40
2018-09-02T07:46:27.193Z,85.30
2018-09-02T07:54:44.364Z,84.00
2018-09-02T08:06:15.308Z,82.70
2018-09-02T08:08:46.510Z,82.40
2018-09-02T08:28:33.693Z,79.00
2018-09-02T08:34:00.124Z,78.90
2018-09-02T08:45:09.828Z,77.40
2018-09-02T08:47:40.039Z,77.00
2018-09-02T08:50:21.458Z,76.40
2018-09-02T08:52:52.663Z,75.70
2018-09-02T08:55:24.368Z,75.40
2018-09-02T08:57:55.865Z,74.60
2018-09-02T09:00:27.171Z,74.30
2018-09-02T09:02:57.666Z,74.30
2018-09-02T09:05:29.302Z,73.20
2018-09-02T09:08:00.635Z,73.50
2018-09-02T09:10:30.796Z,74.10
2018-09-02T09:13:01.574Z,73.80
2018-09-02T09:15:33.448Z,73.00
2018-09-02T09:18:04.297Z,72.90
2018-09-02T09:20:34.584Z,71.80
2018-09-02T09:23:06.207Z,71.20
2018-09-02T09:25:37.318Z,71.20
2018-09-02T09:28:07.463Z,71.00
2018-09-02T09:30:38.698Z,70.90
2018-09-02T09:33:09.680Z,70.60
2018-09-02T09:35:41.257Z,70.80
2018-09-02T09:38:12.377Z,70.30
2018-09-02T09:40:43.916Z,69.90
2018-09-02T09:43:15.464Z,69.00
2018-09-02T09:45:51.113Z,67.10
2018-09-02T09:48:21.947Z,65.20
2018-09-02T09:50:52.705Z,63.30
2018-09-02T09:53:23.785Z,61.70
2018-09-02T09:55:55.919Z,61.70
2018-09-02T09:58:26.192Z,60.70
2018-09-02T10:00:57.440Z,60.60
2018-09-02T10:03:29.096Z,59.10
2018-09-02T10:05:59.934Z,59.70
2018-09-02T10:08:31.374Z,59.60
2018-09-02T10:11:02.185Z,60.40
2018-09-02T10:13:32.811Z,59.40
2018-09-02T10:16:03.631Z,58.20
2018-09-02T10:18:34.285Z,57.60
2018-09-02T10:21:05.285Z,57.80
2018-09-02T10:23:37.102Z,57.10
2018-09-02T10:26:08.534Z,57.40
2018-09-02T10:28:40.374Z,57.10
2018-09-02T10:31:11.382Z,57.60
2018-09-02T10:33:42.943Z,57.60
2018-09-02T10:36:14.413Z,58.80
2018-09-02T10:38:45.661Z,57.70
2018-09-02T10:41:16.945Z,56.60
2018-09-02T10:43:47.805Z,57.10
2018-09-02T10:46:18.549Z,56.60
2018-09-02T10:48:49.315Z,56.80
2018-09-02T10:51:20.209Z,56.20
2018-09-02T10:53:52.160Z,55.90
2018-09-02T10:56:23.844Z,55.80
2018-09-02T10:58:57.315Z,55.00
2018-09-02T11:01:29.035Z,55.30
2018-09-02T11:04:01.229Z,55.70
2018-09-02T11:06:34.231Z,55.80
2018-09-02T11:09:07.519Z,54.70
2018-09-02T11:11:38.638Z,53.80
2018-09-02T11:14:11.653Z,53.60
2018-09-02T11:16:43.136Z,54.50
2018-09-02T11:19:14.527Z,53.60
2018-09-02T11:21:45.969Z,53.20
2018-09-02T11:24:17.142Z,52.80
2018-09-02T11:26:48.487Z,53.20
2018-09-02T11:29:18.878Z,53.30
2018-09-02T11:31:50.138Z,53.40
2018-09-02T11:34:26.333Z,53.70
2018-09-02T11:36:55.263Z,53.60
2018-09-02T11:39:24.927Z,54.10
2018-09-02T11:41:53.706Z,53.60
2018-09-02T11:44:24.499Z,53.60
2018-09-02T11:46:55.051Z,52.90
2018-09-02T11:49:26.577Z,52.00
2018-09-02T11:51:57.375Z,52.10
2018-09-02T11:54:27.599Z,52.40
2018-09-02T11:56:59.184Z,52.20
2018-09-02T11:59:30.695Z,51.20
2018-09-02T12:02:03.280Z,51.30
2018-09-02T12:04:34.374Z,50.20
2018-09-02T12:07:03.732Z,51.70
2018-09-02T12:09:33.034Z,51.40
2018-09-02T12:12:02.427Z,51.90
2018-09-02T12:14:33.130Z,51.80
2018-09-02T12:17:03.622Z,51.40
2018-09-02T12:19:33.943Z,51.10
2018-09-02T12:22:03.387Z,51.40
2018-09-02T12:24:32.303Z,50.80
2018-09-02T12:27:03.260Z,50.00
2018-09-02T12:29:34.377Z,50.40
2018-09-02T12:32:07.236Z,51.40
2018-09-02T12:34:36.874Z,51.00
2018-09-02T12:37:05.641Z,51.10
2018-09-02T12:39:35.717Z,50.90
2018-09-02T12:42:07.308Z,50.80
2018-09-02T12:44:36.918Z,51.00
2018-09-02T12:47:14.671Z,50.40
2018-09-02T12:49:46.153Z,50.40
2018-09-02T12:52:16.145Z,50.40
2018-09-02T12:54:47.098Z,49.20
2018-09-02T12:57:18.506Z,50.50
2018-09-02T12:59:47.368Z,50.40
2018-09-02T13:02:16.451Z,50.30
2018-09-02T13:04:45.742Z,50.20
2018-09-02T13:07:14.599Z,50.00
2018-09-02T13:09:44.129Z,49.50
2018-09-02T13:12:15.249Z,49.50
2018-09-02T13:14:44.145Z,50.00
2018-09-02T13:17:16.102Z,50.80
2018-09-02T13:19:46.123Z,50.50
2018-09-02T13:22:14.951Z,50.20
2018-09-02T13:24:46.102Z,50.10
2018-09-02T13:27:18.807Z,49.20
2018-09-02T13:29:54.616Z,49.10
2018-09-02T13:32:25.881Z,49.50
2018-09-02T13:34:58.052Z,49.20
2018-09-02T13:37:29.980Z,48.70
2018-09-02T13:39:59.016Z,47.90
2018-09-02T13:42:29.082Z,48.30
2018-09-02T13:44:58.160Z,47.70
2018-09-02T13:47:27.136Z,46.90
2018-09-02T13:49:59.350Z,47.90
2018-09-02T13:52:31.280Z,49.50
2018-09-02T13:55:03.201Z,48.90
2018-09-02T13:57:36.459Z,50.30
2018-09-02T14:00:09.540Z,52.20
2018-09-02T14:02:41.342Z,50.90
2018-09-02T14:05:13.093Z,49.70
2018-09-02T14:07:42.734Z,48.70
2018-09-02T14:10:13.273Z,48.30
2018-09-02T14:12:46.871Z,48.20
2018-09-02T14:15:18.922Z,47.90
2018-09-02T14:17:52.400Z,47.90
2018-09-02T14:20:22.650Z,47.60
2018-09-02T14:22:51.716Z,47.40
2018-09-02T14:25:22.910Z,47.50
2018-09-02T14:27:52.041Z,47.50
2018-09-02T14:30:23.723Z,48.30
2018-09-02T14:32:55.308Z,47.90
2018-09-02T14:35:25.687Z,48.00
2018-09-02T14:37:59.047Z,48.30
2018-09-02T14:40:30.063Z,48.70
2018-09-02T14:43:03.615Z,48.70
2018-09-02T14:45:36.260Z,48.80
2018-09-02T14:48:07.993Z,48.70
2018-09-02T14:50:38.852Z,48.50
2018-09-02T14:53:08.459Z,47.70
2018-09-02T14:55:40.654Z,47.80
2018-09-02T14:58:17.419Z,48.40
2018-09-02T15:00:47.330Z,47.60
2018-09-02T15:03:18.649Z,47.70
2018-09-02T15:05:48.958Z,46.90
2018-09-02T15:08:18.512Z,46.80
2018-09-02T15:10:50.081Z,47.00
2018-09-02T15:13:18.991Z,47.50
2018-09-02T15:15:47.908Z,47.80
2018-09-02T15:18:19.424Z,47.90
2018-09-02T15:20:51.988Z,48.20
2018-09-02T15:23:23.175Z,47.90
2018-09-02T15:25:52.649Z,48.40
2018-09-02T15:28:21.933Z,49.20
2018-09-02T15:30:52.090Z,48.50
2018-09-02T15:33:21.572Z,48.20
2018-09-02T15:35:52.348Z,48.20
2018-09-02T15:38:21.592Z,47.80
2018-09-02T15:40:50.746Z,48.20
2018-09-02T15:43:20.931Z,48.20
2018-09-02T15:45:52.784Z,48.00
2018-09-02T15:48:25.192Z,48.00
2018-09-02T15:51:02.865Z,48.20
2018-09-02T15:53:50.160Z,48.40
2018-09-02T15:56:27.312Z,48.50
2018-09-02T15:59:07.053Z,48.50
2018-09-02T16:01:36.304Z,48.50
2018-09-02T16:04:05.111Z,48.20
2018-09-02T16:06:35.522Z,48.00
2018-09-02T16:09:09.098Z,48.20
2018-09-02T16:11:41.181Z,49.40
2018-09-02T16:14:32.544Z,50.00
2018-09-02T16:17:05.342Z,49.70
2018-09-02T16:19:43.756Z,49.30
2018-09-02T16:22:20.917Z,49.70
2018-09-02T16:24:51.314Z,50.00
2018-09-02T16:27:42.026Z,49.70
2018-09-02T16:30:12.757Z,50.80
2018-09-02T16:32:52.808Z,50.90
2018-09-02T16:35:24.414Z,50.70
2018-09-02T16:37:54.134Z,50.40
2018-09-02T16:40:32.866Z,50.10
2018-09-02T16:43:04.570Z,50.90
2018-09-02T16:45:36.510Z,50.30
2018-09-02T16:48:15.832Z,50.50
2018-09-02T16:50:50.146Z,50.70
2018-09-02T16:53:23.553Z,50.70
2018-09-02T16:56:01.887Z,50.90
2018-09-02T16:58:34.563Z,50.80
2018-09-02T17:01:03.684Z,51.40
2018-09-02T17:03:40.626Z,51.00
2018-09-02T17:06:38.821Z,51.00
2018-09-02T17:09:10.925Z,51.60
2018-09-02T17:12:08.870Z,51.60
2018-09-02T17:14:53.664Z,51.90
2018-09-02T17:17:51.577Z,53.00
2018-09-02T17:20:26.009Z,53.30
2018-09-02T17:23:02.678Z,53.90
2018-09-02T17:25:33.362Z,55.50
2018-09-02T17:28:02.703Z,57.40
2018-09-02T17:30:34.218Z,57.90
2018-09-02T17:33:11.637Z,58.50
2018-09-02T17:35:43.203Z,59.10
2018-09-02T17:38:17.851Z,60.30
2018-09-02T17:40:50.956Z,60.50
2018-09-02T17:43:23.814Z,60.80
2018-09-02T17:45:57.213Z,60.90
2018-09-02T17:48:30.234Z,61.10
2018-09-02T17:51:06.032Z,61.30
2018-09-02T17:53:38.201Z,62.00
2018-09-02T17:56:15.172Z,62.30
2018-09-02T17:59:01.885Z,62.10
2018-09-02T18:04:57.300Z,62.80
2018-09-02T18:07:26.445Z,63.10
2018-09-02T18:09:59.503Z,63.10
2018-09-02T18:26:57.854Z,63.70
2018-09-02T18:29:50.503Z,63.90
2018-09-02T19:04:25.461Z,65.70
2018-09-02T19:06:55.426Z,65.70
2018-09-02T19:18:26.154Z,66.40
2018-09-02T19:41:32.727Z,67.00
2018-09-02T19:44:02.697Z,66.80
2018-09-02T19:46:33.159Z,67.50
2018-09-02T19:49:05.339Z,67.90
2018-09-02T19:51:38.721Z,68.20
2018-09-02T19:54:10.714Z,67.80
2018-09-02T19:56:44.033Z,67.80
2018-09-02T19:59:15.917Z,68.30
2018-09-02T20:01:45.725Z,68.20
2018-09-02T20:04:14.558Z,68.10
2018-09-02T20:06:44.181Z,68.10
2018-09-02T20:15:00.743Z,68.70
2018-09-02T20:17:41.021Z,69.20
2018-09-02T20:20:15.015Z,69.20
2018-09-02T20:22:47.842Z,69.40
2018-09-02T20:28:15.044Z,69.40
2018-09-02T20:30:47.459Z,69.70
2018-09-02T20:33:22.291Z,69.90
2018-09-02T20:35:55.144Z,70.00
2018-09-02T20:38:35.925Z,70.10
2018-09-02T20:41:08.341Z,70.00
2018-09-02T20:43:41.522Z,70.30
2018-09-02T20:46:16.059Z,70.30
2018-09-02T20:48:46.653Z,70.30
2018-09-02T20:51:17.166Z,70.40
2018-09-02T20:53:47.993Z,70.40
2018-09-02T20:56:18.916Z,70.50
2018-09-02T20:58:50.929Z,70.60
2018-09-02T21:01:22.109Z,70.70
2018-09-02T21:03:53.802Z,71.10
2018-09-02T21:06:22.850Z,70.80
2018-09-02T21:08:52.101Z,71.10
2018-09-02T21:11:26.565Z,71.10
2018-09-02T21:13:56.032Z,71.20
2018-09-02T21:33:43.912Z,72.00
2018-09-02T21:56:22.560Z,73.30
2018-09-02T22:30:41.854Z,74.10
2018-09-02T22:56:17.724Z,75.90
2018-09-02T23:27:37.423Z,77.40
2018-09-02T23:58:54.920Z,79.70
